KEVV/EVV METAR and TAF weather

Enter ICAO airport designator
Station Type Date Time Source
KEVV METAR 2020/01/26 03:54 UTC NOAA

KEVV 260354Z 26003KT 10SM FEW036 SCT044 M01/M04 A3010 RMK AO2 SLP197 T10061039


Station Type Date Time Source
KEVV Decoded METAR 2020/01/26 03:54 UTC NOAA

EVANSVILLE REGIONAL, IN, United States (KEVV) 38-02N 087-32W 117M
Jan 25, 2020 - 10:54 PM EST / 2020.01.26 0354 UTC
Wind: from the W (260 degrees) at 3 MPH (3 KT):0
Visibility: 10 mile(s):0
Sky conditions: partly cloudy
Temperature: 30.9 F (-0.6 C)
Dew Point: 25.0 F (-3.9 C)
Relative Humidity: 78%
Pressure (altimeter): 30.1 in. Hg (1019 hPa)
ob: KEVV 260354Z 26003KT 10SM FEW036 SCT044 M01/M04 A3010 RMK AO2 SLP197 T10061039
cycle: 4

Station Type Date Time Source
KEVV TAF 2020/01/26 02:42 UTC NOAA

TAF
AMD KEVV 260139Z 2602/2624 26005KT P6SM OVC035
FM260700 26005KT P6SM BKN100
FM261600 21003KT P6SM BKN029
FM262100 21004KT P6SM BKN014

Example: see airport list